sensor_id;sensor_type;location;lat;lon;timestamp;pressure;altitude;pressure_sealevel;temperature;humidity
4617;BME280;2321;42.704;23.384;2023-05-29T00:02:11;95221.66;;;16.65;100.00
4617;BME280;2321;42.704;23.384;2023-05-29T00:04:37;95224.97;;;16.55;100.00
4617;BME280;2321;42.704;23.384;2023-05-29T00:07:06;95226.47;;;16.51;100.00
4617;BME280;2321;42.704;23.384;2023-05-29T00:09:32;95233.59;;;16.46;100.00
4617;BME280;2321;42.704;23.384;2023-05-29T00:12:00;95229.72;;;16.41;100.00
4617;BME280;2321;42.704;23.384;2023-05-29T00:14:29;95236.19;;;16.40;100.00
4617;BME280;2321;42.704;23.384;2023-05-29T00:16:56;95227.28;;;16.40;100.00
4617;BME280;2321;42.704;23.384;2023-05-29T00:19:23;95225.75;;;16.44;100.00
4617;BME280;2321;42.704;23.384;2023-05-29T00:21:50;95229.16;;;16.27;100.00
4617;BME280;2321;42.704;23.384;2023-05-29T00:24:17;95226.13;;;16.23;100.00
4617;BME280;2321;42.704;23.384;2023-05-29T00:26:45;95225.06;;;16.25;100.00
4617;BME280;2321;42.704;23.384;2023-05-29T00:29:12;95227.75;;;16.25;100.00
4617;BME280;2321;42.704;23.384;2023-05-29T00:31:40;95218.78;;;16.19;100.00
4617;BME280;2321;42.704;23.384;2023-05-29T00:34:07;95215.47;;;16.17;100.00
4617;BME280;2321;42.704;23.384;2023-05-29T00:36:34;95215.69;;;16.03;100.00
4617;BME280;2321;42.704;23.384;2023-05-29T00:39:02;95212.84;;;15.98;100.00
4617;BME280;2321;42.704;23.384;2023-05-29T00:41:29;95213.66;;;15.98;100.00
4617;BME280;2321;42.704;23.384;2023-05-29T00:43:56;95218.22;;;15.98;100.00
4617;BME280;2321;42.704;23.384;2023-05-29T00:46:22;95214.97;;;15.96;100.00
4617;BME280;2321;42.704;23.384;2023-05-29T00:48:51;95215.66;;;15.91;100.00
4617;BME280;2321;42.704;23.384;2023-05-29T00:51:18;95213.44;;;15.88;100.00
4617;BME280;2321;42.704;23.384;2023-05-29T00:53:48;95213.06;;;15.84;100.00
4617;BME280;2321;42.704;23.384;2023-05-29T00:56:17;95208.06;;;15.76;100.00
4617;BME280;2321;42.704;23.384;2023-05-29T00:58:46;95211.84;;;15.56;100.00
4617;BME280;2321;42.704;23.384;2023-05-29T01:01:14;95210.38;;;15.41;100.00
4617;BME280;2321;42.704;23.384;2023-05-29T01:03:41;95215.88;;;15.46;100.00
4617;BME280;2321;42.704;23.384;2023-05-29T01:06:10;95218.94;;;15.50;100.00
4617;BME280;2321;42.704;23.384;2023-05-29T01:08:37;95211.25;;;15.54;100.00
4617;BME280;2321;42.704;23.384;2023-05-29T01:11:08;95214.31;;;15.57;100.00
4617;BME280;2321;42.704;23.384;2023-05-29T01:13:41;95216.00;;;15.52;100.00
4617;BME280;2321;42.704;23.384;2023-05-29T01:16:13;95217.63;;;15.41;100.00
4617;BME280;2321;42.704;23.384;2023-05-29T01:18:49;95214.50;;;15.25;100.00
4617;BME280;2321;42.704;23.384;2023-05-29T01:21:31;95217.56;;;15.29;100.00
4617;BME280;2321;42.704;23.384;2023-05-29T01:24:14;95215.22;;;15.20;100.00
4617;BME280;2321;42.704;23.384;2023-05-29T01:26:52;95222.69;;;15.30;100.00
4617;BME280;2321;42.704;23.384;2023-05-29T01:29:24;95214.19;;;15.33;100.00
4617;BME280;2321;42.704;23.384;2023-05-29T01:31:52;95209.06;;;15.32;100.00
4617;BME280;2321;42.704;23.384;2023-05-29T01:34:20;95213.03;;;15.29;100.00
4617;BME280;2321;42.704;23.384;2023-05-29T01:36:47;95215.00;;;15.03;100.00
4617;BME280;2321;42.704;23.384;2023-05-29T01:39:14;95205.84;;;15.11;100.00
4617;BME280;2321;42.704;23.384;2023-05-29T01:41:42;95211.66;;;15.08;100.00
4617;BME280;2321;42.704;23.384;2023-05-29T01:44:12;95210.25;;;15.05;100.00
4617;BME280;2321;42.704;23.384;2023-05-29T01:46:40;95205.53;;;15.00;100.00
4617;BME280;2321;42.704;23.384;2023-05-29T01:49:08;95211.84;;;15.06;100.00
4617;BME280;2321;42.704;23.384;2023-05-29T01:51:35;95199.06;;;15.08;100.00
4617;BME280;2321;42.704;23.384;2023-05-29T01:54:03;95188.34;;;15.08;100.00
4617;BME280;2321;42.704;23.384;2023-05-29T01:56:30;95204.31;;;15.15;100.00
4617;BME280;2321;42.704;23.384;2023-05-29T01:58:58;95206.41;;;15.13;100.00
4617;BME280;2321;42.704;23.384;2023-05-29T02:01:28;95205.84;;;15.11;100.00
4617;BME280;2321;42.704;23.384;2023-05-29T02:03:55;95200.91;;;15.08;100.00
4617;BME280;2321;42.704;23.384;2023-05-29T02:06:22;95193.19;;;14.99;100.00
4617;BME280;2321;42.704;23.384;2023-05-29T02:08:49;95200.41;;;14.99;100.00
4617;BME280;2321;42.704;23.384;2023-05-29T02:11:16;95199.47;;;14.93;100.00
4617;BME280;2321;42.704;23.384;2023-05-29T02:13:43;95195.50;;;14.96;100.00
4617;BME280;2321;42.704;23.384;2023-05-29T02:16:10;95204.38;;;14.96;100.00
4617;BME280;2321;42.704;23.384;2023-05-29T02:18:38;95199.00;;;14.96;100.00
4617;BME280;2321;42.704;23.384;2023-05-29T02:21:06;95198.25;;;14.89;100.00
4617;BME280;2321;42.704;23.384;2023-05-29T02:23:33;95193.31;;;14.67;100.00
4617;BME280;2321;42.704;23.384;2023-05-29T02:26:00;95202.38;;;14.66;100.00
4617;BME280;2321;42.704;23.384;2023-05-29T02:28:27;95192.41;;;14.54;100.00
4617;BME280;2321;42.704;23.384;2023-05-29T02:30:54;95203.19;;;14.47;100.00
4617;BME280;2321;42.704;23.384;2023-05-29T02:33:21;95209.31;;;14.55;100.00
4617;BME280;2321;42.704;23.384;2023-05-29T02:35:49;95207.47;;;14.74;100.00
4617;BME280;2321;42.704;23.384;2023-05-29T02:38:16;95202.63;;;14.64;100.00
4617;BME280;2321;42.704;23.384;2023-05-29T02:40:43;95207.91;;;14.71;100.00
4617;BME280;2321;42.704;23.384;2023-05-29T02:43:12;95216.91;;;14.77;100.00
4617;BME280;2321;42.704;23.384;2023-05-29T02:45:39;95217.94;;;14.76;100.00
4617;BME280;2321;42.704;23.384;2023-05-29T02:48:06;95211.94;;;14.80;100.00
4617;BME280;2321;42.704;23.384;2023-05-29T02:50:33;95210.38;;;14.91;100.00
4617;BME280;2321;42.704;23.384;2023-05-29T02:53:01;95207.84;;;14.97;100.00
4617;BME280;2321;42.704;23.384;2023-05-29T02:55:28;95213.56;;;15.00;100.00
4617;BME280;2321;42.704;23.384;2023-05-29T02:57:57;95204.63;;;15.07;100.00
4617;BME280;2321;42.704;23.384;2023-05-29T03:00:25;95205.69;;;15.06;100.00
4617;BME280;2321;42.704;23.384;2023-05-29T03:02:53;95205.69;;;15.06;100.00
4617;BME280;2321;42.704;23.384;2023-05-29T03:05:20;95210.00;;;15.07;100.00
4617;BME280;2321;42.704;23.384;2023-05-29T03:07:47;95213.13;;;15.03;100.00
4617;BME280;2321;42.704;23.384;2023-05-29T03:10:15;95216.44;;;15.06;100.00
4617;BME280;2321;42.704;23.384;2023-05-29T03:12:44;95217.59;;;15.10;100.00
4617;BME280;2321;42.704;23.384;2023-05-29T03:15:10;95207.00;;;15.15;100.00
4617;BME280;2321;42.704;23.384;2023-05-29T03:17:37;95203.16;;;15.11;100.00
4617;BME280;2321;42.704;23.384;2023-05-29T03:20:05;95214.47;;;14.94;100.00
4617;BME280;2321;42.704;23.384;2023-05-29T03:22:33;95213.88;;;14.92;100.00
4617;BME280;2321;42.704;23.384;2023-05-29T03:25:01;95221.69;;;14.94;100.00
4617;BME280;2321;42.704;23.384;2023-05-29T03:27:29;95232.31;;;14.81;100.00
4617;BME280;2321;42.704;23.384;2023-05-29T03:29:57;95233.44;;;14.74;100.00
4617;BME280;2321;42.704;23.384;2023-05-29T03:32:24;95229.03;;;14.79;100.00
4617;BME280;2321;42.704;23.384;2023-05-29T03:34:51;95228.41;;;14.84;100.00
4617;BME280;2321;42.704;23.384;2023-05-29T03:37:18;95227.06;;;14.94;100.00
4617;BME280;2321;42.704;23.384;2023-05-29T03:39:45;95241.72;;;14.91;100.00
4617;BME280;2321;42.704;23.384;2023-05-29T03:42:12;95238.97;;;14.98;100.00
4617;BME280;2321;42.704;23.384;2023-05-29T03:44:41;95243.59;;;15.09;100.00
4617;BME280;2321;42.704;23.384;2023-05-29T03:47:08;95247.00;;;15.17;100.00
4617;BME280;2321;42.704;23.384;2023-05-29T03:49:35;95235.00;;;15.19;100.00
4617;BME280;2321;42.704;23.384;2023-05-29T03:52:02;95241.94;;;15.27;100.00
4617;BME280;2321;42.704;23.384;2023-05-29T03:54:29;95245.78;;;15.31;100.00
4617;BME280;2321;42.704;23.384;2023-05-29T03:56:56;95241.75;;;15.41;100.00
4617;BME280;2321;42.704;23.384;2023-05-29T03:59:22;95245.97;;;15.49;100.00
4617;BME280;2321;42.704;23.384;2023-05-29T04:01:51;95248.19;;;15.52;100.00
4617;BME280;2321;42.704;23.384;2023-05-29T04:04:17;95253.72;;;15.57;100.00
4617;BME280;2321;42.704;23.384;2023-05-29T04:06:44;95264.00;;;15.60;100.00
4617;BME280;2321;42.704;23.384;2023-05-29T04:09:11;95264.50;;;15.69;100.00
4617;BME280;2321;42.704;23.384;2023-05-29T04:11:38;95262.63;;;15.70;100.00
4617;BME280;2321;42.704;23.384;2023-05-29T04:14:07;95272.31;;;15.71;100.00
4617;BME280;2321;42.704;23.384;2023-05-29T04:16:33;95275.16;;;15.76;100.00
4617;BME280;2321;42.704;23.384;2023-05-29T04:19:02;95269.88;;;15.69;100.00
4617;BME280;2321;42.704;23.384;2023-05-29T04:21:29;95262.84;;;15.68;100.00
4617;BME280;2321;42.704;23.384;2023-05-29T04:23:58;95273.50;;;15.75;100.00
4617;BME280;2321;42.704;23.384;2023-05-29T04:26:24;95268.13;;;15.75;100.00
4617;BME280;2321;42.704;23.384;2023-05-29T04:28:52;95272.97;;;15.85;100.00
4617;BME280;2321;42.704;23.384;2023-05-29T04:31:22;95272.84;;;15.92;100.00
4617;BME280;2321;42.704;23.384;2023-05-29T04:33:51;95283.94;;;15.95;100.00
4617;BME280;2321;42.704;23.384;2023-05-29T04:36:22;95278.81;;;15.94;100.00
4617;BME280;2321;42.704;23.384;2023-05-29T04:38:51;95274.03;;;15.96;100.00
4617;BME280;2321;42.704;23.384;2023-05-29T04:41:18;95281.50;;;15.94;100.00
4617;BME280;2321;42.704;23.384;2023-05-29T04:43:49;95289.56;;;15.94;100.00
4617;BME280;2321;42.704;23.384;2023-05-29T04:46:16;95284.06;;;15.88;100.00
4617;BME280;2321;42.704;23.384;2023-05-29T04:48:43;95280.19;;;15.84;100.00
4617;BME280;2321;42.704;23.384;2023-05-29T04:51:10;95285.31;;;15.86;100.00
4617;BME280;2321;42.704;23.384;2023-05-29T04:53:39;95286.38;;;15.85;100.00
4617;BME280;2321;42.704;23.384;2023-05-29T04:56:06;95287.97;;;15.74;100.00
4617;BME280;2321;42.704;23.384;2023-05-29T04:58:33;95289.16;;;15.78;100.00
4617;BME280;2321;42.704;23.384;2023-05-29T05:01:00;95289.22;;;15.71;100.00
4617;BME280;2321;42.704;23.384;2023-05-29T05:03:28;95301.28;;;15.81;100.00
4617;BME280;2321;42.704;23.384;2023-05-29T05:05:56;95295.94;;;15.81;100.00
4617;BME280;2321;42.704;23.384;2023-05-29T05:08:23;95313.94;;;15.92;100.00
4617;BME280;2321;42.704;23.384;2023-05-29T05:10:51;95318.97;;;15.88;100.00
4617;BME280;2321;42.704;23.384;2023-05-29T05:13:18;95310.78;;;15.95;100.00
4617;BME280;2321;42.704;23.384;2023-05-29T05:15:45;95312.81;;;16.00;100.00
4617;BME280;2321;42.704;23.384;2023-05-29T05:18:12;95310.13;;;16.00;100.00
4617;BME280;2321;42.704;23.384;2023-05-29T05:20:39;95315.44;;;16.07;100.00
4617;BME280;2321;42.704;23.384;2023-05-29T05:23:06;95317.78;;;16.15;100.00
4617;BME280;2321;42.704;23.384;2023-05-29T05:25:33;95320.84;;;16.19;100.00
4617;BME280;2321;42.704;23.384;2023-05-29T05:28:02;95321.53;;;16.26;100.00
4617;BME280;2321;42.704;23.384;2023-05-29T05:30:29;95319.94;;;16.37;100.00
4617;BME280;2321;42.704;23.384;2023-05-29T05:32:56;95317.13;;;16.44;100.00
4617;BME280;2321;42.704;23.384;2023-05-29T05:35:24;95317.59;;;16.53;100.00
4617;BME280;2321;42.704;23.384;2023-05-29T05:37:51;95319.34;;;16.59;100.00
4617;BME280;2321;42.704;23.384;2023-05-29T05:40:18;95311.28;;;16.59;100.00
4617;BME280;2321;42.704;23.384;2023-05-29T05:42:45;95321.81;;;16.61;100.00
4617;BME280;2321;42.704;23.384;2023-05-29T05:45:13;95318.56;;;16.59;100.00
4617;BME280;2321;42.704;23.384;2023-05-29T05:47:40;95311.66;;;16.63;100.00
4617;BME280;2321;42.704;23.384;2023-05-29T05:50:07;95310.59;;;16.64;100.00
4617;BME280;2321;42.704;23.384;2023-05-29T05:52:34;95317.75;;;16.70;100.00
4617;BME280;2321;42.704;23.384;2023-05-29T05:55:01;95318.09;;;16.74;100.00
4617;BME280;2321;42.704;23.384;2023-05-29T05:57:28;95316.19;;;16.74;100.00
4617;BME280;2321;42.704;23.384;2023-05-29T05:59:57;95314.81;;;16.84;100.00
4617;BME280;2321;42.704;23.384;2023-05-29T06:02:26;95310.59;;;16.88;100.00
4617;BME280;2321;42.704;23.384;2023-05-29T06:04:53;95316.34;;;16.92;100.00
4617;BME280;2321;42.704;23.384;2023-05-29T06:07:19;95310.72;;;16.93;100.00
4617;BME280;2321;42.704;23.384;2023-05-29T06:09:46;95304.84;;;16.96;100.00
4617;BME280;2321;42.704;23.384;2023-05-29T06:12:14;95309.66;;;17.06;100.00
4617;BME280;2321;42.704;23.384;2023-05-29T06:14:41;95310.94;;;17.16;100.00
4617;BME280;2321;42.704;23.384;2023-05-29T06:17:08;95315.13;;;17.24;100.00
4617;BME280;2321;42.704;23.384;2023-05-29T06:19:36;95324.72;;;17.31;100.00
4617;BME280;2321;42.704;23.384;2023-05-29T06:22:03;95323.44;;;17.34;100.00
4617;BME280;2321;42.704;23.384;2023-05-29T06:24:30;95320.50;;;17.36;100.00
4617;BME280;2321;42.704;23.384;2023-05-29T06:26:56;95324.13;;;17.41;100.00
4617;BME280;2321;42.704;23.384;2023-05-29T06:29:23;95316.63;;;17.44;100.00
4617;BME280;2321;42.704;23.384;2023-05-29T06:31:50;95319.41;;;17.49;100.00
4617;BME280;2321;42.704;23.384;2023-05-29T06:34:17;95328.28;;;17.61;100.00
4617;BME280;2321;42.704;23.384;2023-05-29T06:36:45;95321.72;;;17.69;100.00
4617;BME280;2321;42.704;23.384;2023-05-29T06:39:13;95325.28;;;17.87;100.00
4617;BME280;2321;42.704;23.384;2023-05-29T06:41:40;95323.66;;;18.03;100.00
4617;BME280;2321;42.704;23.384;2023-05-29T06:44:07;95319.84;;;18.16;100.00
4617;BME280;2321;42.704;23.384;2023-05-29T06:46:34;95318.69;;;18.24;100.00
4617;BME280;2321;42.704;23.384;2023-05-29T06:49:01;95322.03;;;18.32;100.00
4617;BME280;2321;42.704;23.384;2023-05-29T06:51:28;95321.94;;;18.44;100.00
4617;BME280;2321;42.704;23.384;2023-05-29T06:53:56;95316.88;;;18.47;100.00
4617;BME280;2321;42.704;23.384;2023-05-29T06:56:23;95307.06;;;18.58;100.00
4617;BME280;2321;42.704;23.384;2023-05-29T06:58:51;95319.34;;;18.66;100.00
4617;BME280;2321;42.704;23.384;2023-05-29T07:01:17;95315.72;;;18.78;100.00
4617;BME280;2321;42.704;23.384;2023-05-29T07:03:46;95314.81;;;18.89;100.00
4617;BME280;2321;42.704;23.384;2023-05-29T07:06:13;95321.03;;;18.90;100.00
4617;BME280;2321;42.704;23.384;2023-05-29T07:08:40;95325.69;;;18.94;100.00
4617;BME280;2321;42.704;23.384;2023-05-29T07:11:09;95318.97;;;18.97;100.00
4617;BME280;2321;42.704;23.384;2023-05-29T07:13:35;95315.53;;;19.02;100.00
4617;BME280;2321;42.704;23.384;2023-05-29T07:16:02;95326.16;;;19.09;100.00
4617;BME280;2321;42.704;23.384;2023-05-29T07:18:29;95323.88;;;19.00;100.00
4617;BME280;2321;42.704;23.384;2023-05-29T07:20:56;95324.50;;;19.08;100.00
4617;BME280;2321;42.704;23.384;2023-05-29T07:23:24;95325.66;;;19.12;100.00
4617;BME280;2321;42.704;23.384;2023-05-29T07:25:51;95323.84;;;19.17;100.00
4617;BME280;2321;42.704;23.384;2023-05-29T07:28:19;95326.63;;;19.23;100.00
4617;BME280;2321;42.704;23.384;2023-05-29T07:30:46;95317.53;;;19.29;100.00
4617;BME280;2321;42.704;23.384;2023-05-29T07:33:12;95320.63;;;19.38;100.00
4617;BME280;2321;42.704;23.384;2023-05-29T07:35:39;95318.88;;;19.49;100.00
4617;BME280;2321;42.704;23.384;2023-05-29T07:38:06;95313.53;;;19.54;100.00
4617;BME280;2321;42.704;23.384;2023-05-29T07:40:33;95314.63;;;19.53;100.00
4617;BME280;2321;42.704;23.384;2023-05-29T07:43:00;95316.59;;;19.63;100.00
4617;BME280;2321;42.704;23.384;2023-05-29T07:45:28;95319.81;;;19.60;100.00
4617;BME280;2321;42.704;23.384;2023-05-29T07:47:55;95313.38;;;19.66;100.00
4617;BME280;2321;42.704;23.384;2023-05-29T07:50:22;95311.13;;;19.80;100.00
4617;BME280;2321;42.704;23.384;2023-05-29T07:52:48;95311.72;;;19.88;100.00
4617;BME280;2321;42.704;23.384;2023-05-29T07:55:15;95315.56;;;19.92;100.00
4617;BME280;2321;42.704;23.384;2023-05-29T07:57:42;95311.81;;;19.93;100.00
4617;BME280;2321;42.704;23.384;2023-05-29T08:00:10;95305.47;;;19.82;100.00
4617;BME280;2321;42.704;23.384;2023-05-29T08:02:39;95320.00;;;20.03;100.00
4617;BME280;2321;42.704;23.384;2023-05-29T08:05:06;95325.06;;;20.22;100.00
4617;BME280;2321;42.704;23.384;2023-05-29T08:07:34;95317.94;;;20.39;100.00
4617;BME280;2321;42.704;23.384;2023-05-29T08:10:01;95321.56;;;20.55;100.00
4617;BME280;2321;42.704;23.384;2023-05-29T08:12:28;95322.69;;;20.59;100.00
4617;BME280;2321;42.704;23.384;2023-05-29T08:14:55;95318.13;;;20.65;100.00
4617;BME280;2321;42.704;23.384;2023-05-29T08:17:22;95318.84;;;20.55;100.00
4617;BME280;2321;42.704;23.384;2023-05-29T08:19:50;95316.16;;;20.55;100.00
4617;BME280;2321;42.704;23.384;2023-05-29T08:22:17;95320.81;;;20.65;100.00
4617;BME280;2321;42.704;23.384;2023-05-29T08:24:43;95320.13;;;20.80;100.00
4617;BME280;2321;42.704;23.384;2023-05-29T08:27:10;95321.56;;;20.93;99.12
4617;BME280;2321;42.704;23.384;2023-05-29T08:29:38;95325.66;;;21.01;94.88
4617;BME280;2321;42.704;23.384;2023-05-29T08:34:32;95325.19;;;21.04;91.79
4617;BME280;2321;42.704;23.384;2023-05-29T08:37:00;95325.47;;;21.08;91.27
4617;BME280;2321;42.704;23.384;2023-05-29T08:39:27;95323.59;;;21.08;90.87
4617;BME280;2321;42.704;23.384;2023-05-29T08:41:59;95322.00;;;21.13;89.52
4617;BME280;2321;42.704;23.384;2023-05-29T08:44:30;95317.94;;;21.15;87.03
4617;BME280;2321;42.704;23.384;2023-05-29T08:47:01;95311.72;;;21.15;85.30
4617;BME280;2321;42.704;23.384;2023-05-29T08:49:29;95311.13;;;21.07;83.12
4617;BME280;2321;42.704;23.384;2023-05-29T08:52:04;95313.22;;;21.00;82.95
4617;BME280;2321;42.704;23.384;2023-05-29T08:54:36;95309.44;;;21.01;83.68
4617;BME280;2321;42.704;23.384;2023-05-29T08:57:03;95302.47;;;21.05;82.05
4617;BME280;2321;42.704;23.384;2023-05-29T08:59:32;95296.00;;;21.17;83.26
4617;BME280;2321;42.704;23.384;2023-05-29T09:01:59;95302.78;;;21.19;82.23
4617;BME280;2321;42.704;23.384;2023-05-29T09:04:28;95292.75;;;21.15;77.18
4617;BME280;2321;42.704;23.384;2023-05-29T09:06:57;95294.41;;;21.21;78.45
4617;BME280;2321;42.704;23.384;2023-05-29T09:09:26;95289.53;;;21.18;80.10
4617;BME280;2321;42.704;23.384;2023-05-29T09:11:53;95284.44;;;21.32;79.64
4617;BME280;2321;42.704;23.384;2023-05-29T09:14:34;95286.38;;;21.37;78.74
4617;BME280;2321;42.704;23.384;2023-05-29T09:17:02;95286.59;;;21.30;76.75
4617;BME280;2321;42.704;23.384;2023-05-29T09:19:29;95286.84;;;21.23;76.41
4617;BME280;2321;42.704;23.384;2023-05-29T09:22:01;95271.19;;;21.30;83.64
4617;BME280;2321;42.704;23.384;2023-05-29T09:24:30;95284.78;;;21.51;77.05
4617;BME280;2321;42.704;23.384;2023-05-29T09:26:59;95274.31;;;21.71;79.32
4617;BME280;2321;42.704;23.384;2023-05-29T09:29:26;95269.78;;;21.97;77.49
4617;BME280;2321;42.704;23.384;2023-05-29T09:31:53;95278.72;;;22.08;67.21
4617;BME280;2321;42.704;23.384;2023-05-29T09:34:23;95273.03;;;22.05;65.06
4617;BME280;2321;42.704;23.384;2023-05-29T09:36:50;95270.06;;;22.17;68.55
4617;BME280;2321;42.704;23.384;2023-05-29T09:39:17;95265.16;;;22.29;78.77
4617;BME280;2321;42.704;23.384;2023-05-29T09:41:45;95264.91;;;22.52;72.53
4617;BME280;2321;42.704;23.384;2023-05-29T09:44:13;95255.69;;;22.58;71.40
4617;BME280;2321;42.704;23.384;2023-05-29T09:46:41;95261.09;;;22.42;70.43
4617;BME280;2321;42.704;23.384;2023-05-29T09:49:12;95253.00;;;22.32;71.37
4617;BME280;2321;42.704;23.384;2023-05-29T09:51:39;95256.50;;;22.33;68.42
4617;BME280;2321;42.704;23.384;2023-05-29T09:54:13;95257.06;;;22.35;68.45
4617;BME280;2321;42.704;23.384;2023-05-29T09:56:42;95249.69;;;22.51;72.83
4617;BME280;2321;42.704;23.384;2023-05-29T09:59:12;95248.63;;;22.62;68.28
4617;BME280;2321;42.704;23.384;2023-05-29T10:01:40;95254.03;;;22.68;65.53
4617;BME280;2321;42.704;23.384;2023-05-29T10:04:09;95246.19;;;22.50;63.21
4617;BME280;2321;42.704;23.384;2023-05-29T10:06:37;95239.13;;;22.49;67.22
4617;BME280;2321;42.704;23.384;2023-05-29T10:09:09;95252.16;;;22.42;62.94
4617;BME280;2321;42.704;23.384;2023-05-29T10:11:38;95249.19;;;22.44;62.11
4617;BME280;2321;42.704;23.384;2023-05-29T10:14:09;95231.25;;;22.58;63.94
4617;BME280;2321;42.704;23.384;2023-05-29T10:16:41;95236.38;;;22.70;65.49
4617;BME280;2321;42.704;23.384;2023-05-29T10:19:12;95241.00;;;22.85;63.17
4617;BME280;2321;42.704;23.384;2023-05-29T10:21:40;95242.09;;;22.90;61.87
4617;BME280;2321;42.704;23.384;2023-05-29T10:24:08;95233.97;;;22.84;60.90
4617;BME280;2321;42.704;23.384;2023-05-29T10:26:39;95234.47;;;22.92;63.09
4617;BME280;2321;42.704;23.384;2023-05-29T10:29:12;95236.09;;;22.93;61.00
4617;BME280;2321;42.704;23.384;2023-05-29T10:31:52;95229.03;;;22.97;58.31
4617;BME280;2321;42.704;23.384;2023-05-29T10:34:27;95232.28;;;22.99;58.43
4617;BME280;2321;42.704;23.384;2023-05-29T10:37:03;95235.03;;;22.89;56.99
4617;BME280;2321;42.704;23.384;2023-05-29T10:39:31;95228.78;;;22.88;61.27
4617;BME280;2321;42.704;23.384;2023-05-29T10:41:59;95233.41;;;22.82;61.92
4617;BME280;2321;42.704;23.384;2023-05-29T10:44:43;95230.97;;;22.86;59.98
4617;BME280;2321;42.704;23.384;2023-05-29T10:47:12;95228.50;;;22.95;60.68
4617;BME280;2321;42.704;23.384;2023-05-29T10:49:49;95217.34;;;23.02;59.44
4617;BME280;2321;42.704;23.384;2023-05-29T10:52:18;95217.56;;;23.16;60.48
4617;BME280;2321;42.704;23.384;2023-05-29T10:54:51;95208.88;;;23.14;57.43
4617;BME280;2321;42.704;23.384;2023-05-29T10:57:22;95207.84;;;23.04;58.82
4617;BME280;2321;42.704;23.384;2023-05-29T10:59:58;95202.59;;;23.18;62.17
4617;BME280;2321;42.704;23.384;2023-05-29T11:02:27;95207.25;;;23.18;59.24
4617;BME280;2321;42.704;23.384;2023-05-29T11:05:21;95205.31;;;23.18;60.90
4617;BME280;2321;42.704;23.384;2023-05-29T11:07:52;95200.22;;;23.12;57.95
4617;BME280;2321;42.704;23.384;2023-05-29T11:10:55;95199.09;;;23.13;57.92
4617;BME280;2321;42.704;23.384;2023-05-29T11:13:26;95201.00;;;23.12;59.68
4617;BME280;2321;42.704;23.384;2023-05-29T11:16:12;95200.19;;;23.17;57.75
4617;BME280;2321;42.704;23.384;2023-05-29T11:18:45;95203.69;;;23.23;58.79
4617;BME280;2321;42.704;23.384;2023-05-29T11:21:31;95194.97;;;23.26;58.51
4617;BME280;2321;42.704;23.384;2023-05-29T11:24:03;95199.59;;;23.25;55.69
4617;BME280;2321;42.704;23.384;2023-05-29T11:26:30;95192.78;;;23.33;56.22
4617;BME280;2321;42.704;23.384;2023-05-29T11:28:59;95190.78;;;23.55;55.83
4617;BME280;2321;42.704;23.384;2023-05-29T11:31:28;95190.66;;;23.76;52.16
4617;BME280;2321;42.704;23.384;2023-05-29T11:33:59;95185.13;;;23.91;54.11
4617;BME280;2321;42.704;23.384;2023-05-29T11:36:27;95185.84;;;24.02;54.80
4617;BME280;2321;42.704;23.384;2023-05-29T11:38:54;95193.09;;;24.12;54.05
4617;BME280;2321;42.704;23.384;2023-05-29T11:41:21;95191.47;;;24.11;55.21
4617;BME280;2321;42.704;23.384;2023-05-29T11:43:56;95192.91;;;24.03;53.09
4617;BME280;2321;42.704;23.384;2023-05-29T11:46:24;95194.88;;;23.92;53.03
4617;BME280;2321;42.704;23.384;2023-05-29T11:48:52;95186.00;;;23.81;52.47
4617;BME280;2321;42.704;23.384;2023-05-29T11:51:20;95192.84;;;23.74;56.88
4617;BME280;2321;42.704;23.384;2023-05-29T11:53:48;95197.03;;;23.55;66.03
4617;BME280;2321;42.704;23.384;2023-05-29T11:56:15;95193.00;;;23.37;69.67
4617;BME280;2321;42.704;23.384;2023-05-29T11:58:42;95199.88;;;23.24;72.20
4617;BME280;2321;42.704;23.384;2023-05-29T12:01:09;95191.03;;;23.02;74.09
4617;BME280;2321;42.704;23.384;2023-05-29T12:03:40;95188.88;;;22.89;76.55
4617;BME280;2321;42.704;23.384;2023-05-29T12:06:08;95203.59;;;22.77;78.20
4617;BME280;2321;42.704;23.384;2023-05-29T12:08:37;95206.81;;;22.63;95.37
4617;BME280;2321;42.704;23.384;2023-05-29T12:11:05;95219.38;;;22.38;90.13
4617;BME280;2321;42.704;23.384;2023-05-29T12:13:32;95215.03;;;22.06;85.77
4617;BME280;2321;42.704;23.384;2023-05-29T12:16:02;95216.63;;;21.86;87.79
4617;BME280;2321;42.704;23.384;2023-05-29T12:18:30;95215.50;;;21.61;89.11
4617;BME280;2321;42.704;23.384;2023-05-29T12:20:57;95227.09;;;21.40;90.22
4617;BME280;2321;42.704;23.384;2023-05-29T12:23:25;95225.41;;;21.29;88.09
4617;BME280;2321;42.704;23.384;2023-05-29T12:25:54;95231.63;;;21.19;86.93
4617;BME280;2321;42.704;23.384;2023-05-29T12:28:21;95222.81;;;21.01;83.46
4617;BME280;2321;42.704;23.384;2023-05-29T12:30:49;95230.16;;;21.00;82.85
4617;BME280;2321;42.704;23.384;2023-05-29T12:33:27;95228.50;;;20.94;85.70
4617;BME280;2321;42.704;23.384;2023-05-29T12:36:00;95218.97;;;20.86;84.39
4617;BME280;2321;42.704;23.384;2023-05-29T12:38:27;95222.75;;;20.85;85.84
4617;BME280;2321;42.704;23.384;2023-05-29T12:40:55;95216.28;;;20.92;87.34
4617;BME280;2321;42.704;23.384;2023-05-29T12:45:54;95214.91;;;20.84;79.37
4617;BME280;2321;42.704;23.384;2023-05-29T12:48:28;95202.50;;;20.88;84.23
4617;BME280;2321;42.704;23.384;2023-05-29T12:50:55;95205.31;;;21.09;83.03
4617;BME280;2321;42.704;23.384;2023-05-29T12:53:28;95202.91;;;21.23;82.73
4617;BME280;2321;42.704;23.384;2023-05-29T12:55:57;95204.09;;;21.48;79.88
4617;BME280;2321;42.704;23.384;2023-05-29T12:58:24;95208.47;;;21.70;87.56
4617;BME280;2321;42.704;23.384;2023-05-29T13:00:53;95207.38;;;21.87;88.37
4617;BME280;2321;42.704;23.384;2023-05-29T13:03:21;95215.03;;;22.01;87.58
4617;BME280;2321;42.704;23.384;2023-05-29T13:05:49;95205.25;;;22.15;87.35
4617;BME280;2321;42.704;23.384;2023-05-29T13:08:16;95202.81;;;22.24;88.20
4617;BME280;2321;42.704;23.384;2023-05-29T13:10:44;95197.09;;;22.36;82.46
4617;BME280;2321;42.704;23.384;2023-05-29T13:13:12;95199.28;;;22.50;84.25
4617;BME280;2321;42.704;23.384;2023-05-29T13:15:39;95195.16;;;22.68;77.12
4617;BME280;2321;42.704;23.384;2023-05-29T13:18:06;95187.56;;;22.75;76.88